sensor_id;sensor_type;location;lat;lon;timestamp;pressure;altitude;pressure_sealevel;temperature;humidity
78986;BME280;68384;55.750;48.746;2023-04-15T00:00:48;100211.19;;;-3.81;35.98
78986;BME280;68384;55.750;48.746;2023-04-15T00:01:52;100205.88;;;-3.84;35.88
78986;BME280;68384;55.750;48.746;2023-04-15T00:02:56;100206.13;;;-3.81;35.61
78986;BME280;68384;55.750;48.746;2023-04-15T00:04:00;100213.72;;;-3.81;35.60
78986;BME280;68384;55.750;48.746;2023-04-15T00:05:05;100216.25;;;-3.81;35.56
78986;BME280;68384;55.750;48.746;2023-04-15T00:06:08;100218.34;;;-3.77;35.45
78986;BME280;68384;55.750;48.746;2023-04-15T00:07:12;100201.34;;;-3.78;35.67
78986;BME280;68384;55.750;48.746;2023-04-15T00:08:15;100224.91;;;-3.79;35.76
78986;BME280;68384;55.750;48.746;2023-04-15T00:09:19;100222.50;;;-3.78;35.90
78986;BME280;68384;55.750;48.746;2023-04-15T00:10:21;100214.47;;;-3.82;35.58
78986;BME280;68384;55.750;48.746;2023-04-15T00:11:25;100221.47;;;-3.80;35.87
78986;BME280;68384;55.750;48.746;2023-04-15T00:12:28;100225.63;;;-3.80;35.82
78986;BME280;68384;55.750;48.746;2023-04-15T00:13:31;100190.66;;;-3.84;36.04
78986;BME280;68384;55.750;48.746;2023-04-15T00:14:35;100229.06;;;-3.80;35.73
78986;BME280;68384;55.750;48.746;2023-04-15T00:15:39;100223.09;;;-3.80;35.77
78986;BME280;68384;55.750;48.746;2023-04-15T00:16:42;100218.03;;;-3.80;35.77
78986;BME280;68384;55.750;48.746;2023-04-15T00:17:45;100212.84;;;-3.82;35.88
78986;BME280;68384;55.750;48.746;2023-04-15T00:18:48;100212.69;;;-3.83;35.49
78986;BME280;68384;55.750;48.746;2023-04-15T00:19:54;100235.78;;;-3.80;35.50
78986;BME280;68384;55.750;48.746;2023-04-15T00:20:56;100229.81;;;-3.81;35.73
78986;BME280;68384;55.750;48.746;2023-04-15T00:22:00;100225.50;;;-3.82;35.80
78986;BME280;68384;55.750;48.746;2023-04-15T00:23:03;100238.00;;;-3.83;35.90
78986;BME280;68384;55.750;48.746;2023-04-15T00:24:06;100225.34;;;-3.83;35.92
78986;BME280;68384;55.750;48.746;2023-04-15T00:25:09;100232.81;;;-3.85;35.63
78986;BME280;68384;55.750;48.746;2023-04-15T00:26:13;100229.38;;;-3.85;35.62
78986;BME280;68384;55.750;48.746;2023-04-15T00:27:15;100240.41;;;-3.85;35.98
78986;BME280;68384;55.750;48.746;2023-04-15T00:28:19;100238.63;;;-3.86;35.78
78986;BME280;68384;55.750;48.746;2023-04-15T00:29:22;100240.25;;;-3.86;36.21
78986;BME280;68384;55.750;48.746;2023-04-15T00:30:25;100240.13;;;-3.88;36.26
78986;BME280;68384;55.750;48.746;2023-04-15T00:31:28;100242.50;;;-3.89;36.17
78986;BME280;68384;55.750;48.746;2023-04-15T00:32:32;100221.09;;;-4.02;36.25
78986;BME280;68384;55.750;48.746;2023-04-15T00:33:35;100232.09;;;-3.92;36.16
78986;BME280;68384;55.750;48.746;2023-04-15T00:34:38;100245.03;;;-3.89;36.34
78986;BME280;68384;55.750;48.746;2023-04-15T00:35:43;100244.00;;;-3.91;36.40
78986;BME280;68384;55.750;48.746;2023-04-15T00:36:46;100234.19;;;-3.97;36.53
78986;BME280;68384;55.750;48.746;2023-04-15T00:37:49;100215.44;;;-4.08;36.70
78986;BME280;68384;55.750;48.746;2023-04-15T00:38:53;100247.31;;;-3.92;36.71
78986;BME280;68384;55.750;48.746;2023-04-15T00:39:56;100231.53;;;-3.98;36.63
78986;BME280;68384;55.750;48.746;2023-04-15T00:40:59;100252.38;;;-3.92;36.46
78986;BME280;68384;55.750;48.746;2023-04-15T00:42:03;100240.88;;;-3.97;35.91
78986;BME280;68384;55.750;48.746;2023-04-15T00:43:07;100245.22;;;-3.96;36.43
78986;BME280;68384;55.750;48.746;2023-04-15T00:44:10;100251.16;;;-3.96;35.99
78986;BME280;68384;55.750;48.746;2023-04-15T00:45:13;100259.66;;;-3.95;36.10
78986;BME280;68384;55.750;48.746;2023-04-15T00:46:17;100252.94;;;-3.95;36.33
78986;BME280;68384;55.750;48.746;2023-04-15T00:47:23;100244.19;;;-3.98;36.14
78986;BME280;68384;55.750;48.746;2023-04-15T00:48:26;100251.00;;;-3.97;36.02
78986;BME280;68384;55.750;48.746;2023-04-15T00:49:30;100261.44;;;-3.94;36.31
78986;BME280;68384;55.750;48.746;2023-04-15T00:50:33;100267.25;;;-3.95;36.34
78986;BME280;68384;55.750;48.746;2023-04-15T00:51:38;100264.72;;;-3.95;36.52
78986;BME280;68384;55.750;48.746;2023-04-15T00:52:41;100262.19;;;-3.95;36.60
78986;BME280;68384;55.750;48.746;2023-04-15T00:53:44;100263.53;;;-3.99;37.04
78986;BME280;68384;55.750;48.746;2023-04-15T00:54:47;100262.81;;;-3.98;36.71
78986;BME280;68384;55.750;48.746;2023-04-15T00:55:53;100266.19;;;-3.97;36.45
78986;BME280;68384;55.750;48.746;2023-04-15T00:56:55;100272.31;;;-3.95;36.36
78986;BME280;68384;55.750;48.746;2023-04-15T00:58:00;100261.91;;;-3.98;36.59
78986;BME280;68384;55.750;48.746;2023-04-15T00:59:03;100266.06;;;-3.99;36.74
78986;BME280;68384;55.750;48.746;2023-04-15T01:00:08;100257.56;;;-4.00;36.98
78986;BME280;68384;55.750;48.746;2023-04-15T01:01:12;100260.28;;;-4.07;36.57
78986;BME280;68384;55.750;48.746;2023-04-15T01:02:15;100264.13;;;-4.02;36.70
78986;BME280;68384;55.750;48.746;2023-04-15T01:03:19;100277.53;;;-4.03;36.04
78986;BME280;68384;55.750;48.746;2023-04-15T01:04:23;100278.44;;;-4.02;36.39
78986;BME280;68384;55.750;48.746;2023-04-15T01:05:26;100280.66;;;-4.05;36.46
78986;BME280;68384;55.750;48.746;2023-04-15T01:06:31;100280.66;;;-4.05;36.46
78986;BME280;68384;55.750;48.746;2023-04-15T01:07:36;100274.72;;;-4.06;36.36
78986;BME280;68384;55.750;48.746;2023-04-15T01:08:39;100271.16;;;-4.08;36.08
78986;BME280;68384;55.750;48.746;2023-04-15T01:09:42;100265.34;;;-4.07;36.14
78986;BME280;68384;55.750;48.746;2023-04-15T01:10:46;100280.38;;;-4.08;35.87
78986;BME280;68384;55.750;48.746;2023-04-15T01:11:49;100278.00;;;-4.07;36.19
78986;BME280;68384;55.750;48.746;2023-04-15T01:12:53;100279.78;;;-4.06;36.36
78986;BME280;68384;55.750;48.746;2023-04-15T01:13:57;100288.25;;;-4.05;36.42
78986;BME280;68384;55.750;48.746;2023-04-15T01:15:01;100285.00;;;-4.04;36.38
78986;BME280;68384;55.750;48.746;2023-04-15T01:16:05;100287.38;;;-4.06;36.60
78986;BME280;68384;55.750;48.746;2023-04-15T01:17:09;100284.22;;;-4.03;36.51
78986;BME280;68384;55.750;48.746;2023-04-15T01:18:12;100289.91;;;-4.06;36.38
78986;BME280;68384;55.750;48.746;2023-04-15T01:19:16;100274.16;;;-4.12;36.15
78986;BME280;68384;55.750;48.746;2023-04-15T01:20:20;100273.53;;;-4.09;36.36
78986;BME280;68384;55.750;48.746;2023-04-15T01:21:24;100279.78;;;-4.06;36.20
78986;BME280;68384;55.750;48.746;2023-04-15T01:22:28;100279.47;;;-4.09;35.99
78986;BME280;68384;55.750;48.746;2023-04-15T01:23:34;100281.56;;;-4.05;36.39
78986;BME280;68384;55.750;48.746;2023-04-15T01:24:38;100263.13;;;-4.21;36.33
78986;BME280;68384;55.750;48.746;2023-04-15T01:25:43;100291.41;;;-4.08;36.26
78986;BME280;68384;55.750;48.746;2023-04-15T01:26:47;100288.72;;;-4.09;36.43
78986;BME280;68384;55.750;48.746;2023-04-15T01:27:51;100287.84;;;-4.10;36.46
78986;BME280;68384;55.750;48.746;2023-04-15T01:28:54;100297.06;;;-4.10;36.63
78986;BME280;68384;55.750;48.746;2023-04-15T01:29:58;100292.91;;;-4.10;36.58
78986;BME280;68384;55.750;48.746;2023-04-15T01:31:05;100300.50;;;-4.10;36.36
78986;BME280;68384;55.750;48.746;2023-04-15T01:32:09;100299.47;;;-4.12;36.61
78986;BME280;68384;55.750;48.746;2023-04-15T01:33:31;100296.16;;;-4.11;36.67
78986;BME280;68384;55.750;48.746;2023-04-15T01:34:53;100292.44;;;-4.14;36.40
78986;BME280;68384;55.750;48.746;2023-04-15T01:36:16;100300.94;;;-4.14;36.51
78986;BME280;68384;55.750;48.746;2023-04-15T01:37:19;100299.75;;;-4.17;36.61
78986;BME280;68384;55.750;48.746;2023-04-15T01:38:22;100305.84;;;-4.15;36.54
78986;BME280;68384;55.750;48.746;2023-04-15T01:39:26;100298.25;;;-4.15;36.82
78986;BME280;68384;55.750;48.746;2023-04-15T01:40:28;100278.75;;;-4.16;36.80
78986;BME280;68384;55.750;48.746;2023-04-15T01:41:35;100291.28;;;-4.18;36.40
78986;BME280;68384;55.750;48.746;2023-04-15T01:42:38;100297.25;;;-4.17;36.80
78986;BME280;68384;55.750;48.746;2023-04-15T01:43:43;100304.66;;;-4.19;36.70
78986;BME280;68384;55.750;48.746;2023-04-15T01:44:48;100303.16;;;-4.17;36.80
78986;BME280;68384;55.750;48.746;2023-04-15T01:45:53;100304.06;;;-4.16;36.60
78986;BME280;68384;55.750;48.746;2023-04-15T01:46:56;100304.97;;;-4.16;36.84
78986;BME280;68384;55.750;48.746;2023-04-15T01:48:02;100303.16;;;-4.17;36.73
78986;BME280;68384;55.750;48.746;2023-04-15T01:49:05;100301.41;;;-4.18;36.69
78986;BME280;68384;55.750;48.746;2023-04-15T01:50:10;100320.88;;;-4.17;37.00
78986;BME280;68384;55.750;48.746;2023-04-15T01:51:14;100311.66;;;-4.16;36.76
78986;BME280;68384;55.750;48.746;2023-04-15T01:52:19;100314.94;;;-4.17;36.64
78986;BME280;68384;55.750;48.746;2023-04-15T01:53:23;100314.34;;;-4.15;36.77
78986;BME280;68384;55.750;48.746;2023-04-15T01:54:28;100310.94;;;-4.15;36.89
78986;BME280;68384;55.750;48.746;2023-04-15T01:55:31;100318.81;;;-4.12;36.77
78986;BME280;68384;55.750;48.746;2023-04-15T01:56:38;100321.19;;;-4.14;36.91
78986;BME280;68384;55.750;48.746;2023-04-15T01:57:42;100311.94;;;-4.13;36.80
78986;BME280;68384;55.750;48.746;2023-04-15T01:59:15;100314.66;;;-4.12;36.46
78986;BME280;68384;55.750;48.746;2023-04-15T02:00:47;100320.59;;;-4.11;36.50
78986;BME280;68384;55.750;48.746;2023-04-15T02:02:18;100322.06;;;-4.13;36.37
78986;BME280;68384;55.750;48.746;2023-04-15T02:03:50;100317.31;;;-4.10;36.50
78986;BME280;68384;55.750;48.746;2023-04-15T02:05:23;100333.69;;;-4.07;36.60
78986;BME280;68384;55.750;48.746;2023-04-15T02:14:10;100321.63;;;-4.01;36.01
78986;BME280;68384;55.750;48.746;2023-04-15T02:15:15;100322.81;;;-4.06;35.89
78986;BME280;68384;55.750;48.746;2023-04-15T02:16:19;100332.31;;;-3.94;36.06
78986;BME280;68384;55.750;48.746;2023-04-15T02:17:24;100318.94;;;-4.02;36.07
78986;BME280;68384;55.750;48.746;2023-04-15T02:18:28;100329.81;;;-4.03;36.18
78986;BME280;68384;55.750;48.746;2023-04-15T02:19:33;100335.63;;;-3.87;36.29
78986;BME280;68384;55.750;48.746;2023-04-15T02:20:37;100341.84;;;-3.83;36.09
78986;BME280;68384;55.750;48.746;2023-04-15T02:21:42;100344.38;;;-3.83;36.20
78986;BME280;68384;55.750;48.746;2023-04-15T02:22:46;100338.72;;;-3.81;35.95
78986;BME280;68384;55.750;48.746;2023-04-15T02:23:51;100339.19;;;-3.85;36.00
78986;BME280;68384;55.750;48.746;2023-04-15T02:24:56;100339.78;;;-3.79;36.25
78986;BME280;68384;55.750;48.746;2023-04-15T02:26:01;100351.84;;;-3.76;35.58
78986;BME280;68384;55.750;48.746;2023-04-15T02:27:05;100339.91;;;-3.77;35.99
78986;BME280;68384;55.750;48.746;2023-04-15T02:28:09;100332.19;;;-3.79;35.99
78986;BME280;68384;55.750;48.746;2023-04-15T02:29:16;100353.28;;;-3.70;35.60
78986;BME280;68384;55.750;48.746;2023-04-15T02:30:20;100358.81;;;-3.65;35.87
78986;BME280;68384;55.750;48.746;2023-04-15T02:31:26;100347.91;;;-3.64;35.77
78986;BME280;68384;55.750;48.746;2023-04-15T02:32:30;100347.47;;;-3.60;35.95
78986;BME280;68384;55.750;48.746;2023-04-15T02:33:35;100324.06;;;-3.58;35.30
78986;BME280;68384;55.750;48.746;2023-04-15T02:34:40;100348.06;;;-3.54;35.35
78986;BME280;68384;55.750;48.746;2023-04-15T02:35:45;100356.53;;;-3.54;35.66
78986;BME280;68384;55.750;48.746;2023-04-15T02:36:49;100351.47;;;-3.54;35.61
78986;BME280;68384;55.750;48.746;2023-04-15T02:37:57;100355.31;;;-3.49;35.74
78986;BME280;68384;55.750;48.746;2023-04-15T02:39:01;100355.31;;;-3.49;35.53
78986;BME280;68384;55.750;48.746;2023-04-15T02:40:07;100361.88;;;-3.42;35.50
78986;BME280;68384;55.750;48.746;2023-04-15T02:41:12;100356.22;;;-3.48;35.60
78986;BME280;68384;55.750;48.746;2023-04-15T02:42:17;100343.53;;;-3.40;35.69
78986;BME280;68384;55.750;48.746;2023-04-15T02:43:21;100370.34;;;-3.33;35.09
78986;BME280;68384;55.750;48.746;2023-04-15T02:44:27;100363.66;;;-3.32;35.33
78986;BME280;68384;55.750;48.746;2023-04-15T02:45:31;100355.28;;;-3.31;35.07
78986;BME280;68384;55.750;48.746;2023-04-15T02:46:36;100368.41;;;-3.27;34.59
78986;BME280;68384;55.750;48.746;2023-04-15T02:47:40;100371.50;;;-3.29;34.58
78986;BME280;68384;55.750;48.746;2023-04-15T02:48:45;100352.13;;;-3.29;34.65
78986;BME280;68384;55.750;48.746;2023-04-15T02:49:49;100361.25;;;-3.31;34.46
78986;BME280;68384;55.750;48.746;2023-04-15T02:51:10;100349.59;;;-3.29;34.56
78986;BME280;68384;55.750;48.746;2023-04-15T02:52:14;100369.28;;;-3.26;34.41
78986;BME280;68384;55.750;48.746;2023-04-15T02:53:19;100372.88;;;-3.24;34.70
78986;BME280;68384;55.750;48.746;2023-04-15T02:54:23;100370.88;;;-3.18;34.58
78986;BME280;68384;55.750;48.746;2023-04-15T02:55:28;100376.84;;;-3.18;34.54
78986;BME280;68384;55.750;48.746;2023-04-15T02:56:31;100378.03;;;-3.14;34.77
78986;BME280;68384;55.750;48.746;2023-04-15T02:57:36;100368.94;;;-3.12;34.67
78986;BME280;68384;55.750;48.746;2023-04-15T02:58:43;100379.22;;;-3.11;34.35
78986;BME280;68384;55.750;48.746;2023-04-15T02:59:49;100372.66;;;-3.09;34.49
78986;BME280;68384;55.750;48.746;2023-04-15T03:00:53;100379.78;;;-3.05;34.05
78986;BME280;68384;55.750;48.746;2023-04-15T03:01:58;100392.75;;;-3.02;34.03
78986;BME280;68384;55.750;48.746;2023-04-15T03:03:04;100351.78;;;-3.15;34.38
78986;BME280;68384;55.750;48.746;2023-04-15T03:04:10;100376.91;;;-2.99;34.31
78986;BME280;68384;55.750;48.746;2023-04-15T03:05:14;100384.69;;;-2.98;34.14
78986;BME280;68384;55.750;48.746;2023-04-15T03:06:19;100395.84;;;-2.96;34.26
78986;BME280;68384;55.750;48.746;2023-04-15T03:07:22;100380.81;;;-2.94;34.32
78986;BME280;68384;55.750;48.746;2023-04-15T03:08:27;100363.69;;;-3.05;34.03
78986;BME280;68384;55.750;48.746;2023-04-15T03:09:31;100390.34;;;-2.92;33.82
78986;BME280;68384;55.750;48.746;2023-04-15T03:10:36;100395.81;;;-2.87;33.79
78986;BME280;68384;55.750;48.746;2023-04-15T03:11:39;100405.50;;;-2.83;34.22
78986;BME280;68384;55.750;48.746;2023-04-15T03:12:44;100394.75;;;-2.81;34.08
78986;BME280;68384;55.750;48.746;2023-04-15T03:13:48;100399.50;;;-2.75;34.01
78986;BME280;68384;55.750;48.746;2023-04-15T03:14:54;100407.53;;;-2.70;33.92
78986;BME280;68384;55.750;48.746;2023-04-15T03:15:58;100400.06;;;-2.69;33.98
78986;BME280;68384;55.750;48.746;2023-04-15T03:17:03;100410.50;;;-2.66;33.45
78986;BME280;68384;55.750;48.746;2023-04-15T03:18:07;100400.63;;;-2.63;33.42
78986;BME280;68384;55.750;48.746;2023-04-15T03:19:12;100407.94;;;-2.66;33.31
78986;BME280;68384;55.750;48.746;2023-04-15T03:20:16;100419.13;;;-2.64;33.24
78986;BME280;68384;55.750;48.746;2023-04-15T03:21:21;100404.81;;;-2.63;33.61
78986;BME280;68384;55.750;48.746;2023-04-15T03:22:26;100418.25;;;-2.64;33.39
78986;BME280;68384;55.750;48.746;2023-04-15T03:23:31;100406.44;;;-2.64;33.45
78986;BME280;68384;55.750;48.746;2023-04-15T03:24:35;100392.16;;;-2.72;33.45
78986;BME280;68384;55.750;48.746;2023-04-15T03:25:40;100402.72;;;-2.59;33.41
78986;BME280;68384;55.750;48.746;2023-04-15T03:26:44;100414.50;;;-2.59;33.35
78986;BME280;68384;55.750;48.746;2023-04-15T03:27:49;100403.84;;;-2.55;33.43
78986;BME280;68384;55.750;48.746;2023-04-15T03:28:53;100406.56;;;-2.54;33.32
78986;BME280;68384;55.750;48.746;2023-04-15T03:29:59;100422.06;;;-2.51;33.21
78986;BME280;68384;55.750;48.746;2023-04-15T03:31:03;100418.22;;;-2.56;33.16
78986;BME280;68384;55.750;48.746;2023-04-15T03:32:08;100400.59;;;-2.54;32.91
78986;BME280;68384;55.750;48.746;2023-04-15T03:33:12;100410.28;;;-2.50;32.83
78986;BME280;68384;55.750;48.746;2023-04-15T03:34:17;100394.88;;;-2.52;32.83
78986;BME280;68384;55.750;48.746;2023-04-15T03:35:21;100406.50;;;-2.45;32.95
78986;BME280;68384;55.750;48.746;2023-04-15T03:36:27;100409.78;;;-2.46;33.10
78986;BME280;68384;55.750;48.746;2023-04-15T03:37:33;100412.13;;;-2.39;33.04
78986;BME280;68384;55.750;48.746;2023-04-15T03:38:37;100411.53;;;-2.37;33.02
78986;BME280;68384;55.750;48.746;2023-04-15T03:39:42;100409.13;;;-2.35;32.87
78986;BME280;68384;55.750;48.746;2023-04-15T03:40:46;100415.50;;;-2.30;32.79
78986;BME280;68384;55.750;48.746;2023-04-15T03:41:50;100412.50;;;-2.26;32.67
78986;BME280;68384;55.750;48.746;2023-04-15T03:42:54;100403.16;;;-2.36;32.59
78986;BME280;68384;55.750;48.746;2023-04-15T03:43:59;100412.03;;;-2.22;32.71
78986;BME280;68384;55.750;48.746;2023-04-15T03:45:05;100420.66;;;-2.20;32.75
78986;BME280;68384;55.750;48.746;2023-04-15T03:46:10;100425.63;;;-2.22;32.55
78986;BME280;68384;55.750;48.746;2023-04-15T03:47:14;100418.91;;;-2.21;32.36
78986;BME280;68384;55.750;48.746;2023-04-15T03:48:19;100416.13;;;-2.14;32.41
78986;BME280;68384;55.750;48.746;2023-04-15T03:49:23;100403.31;;;-2.15;32.73
78986;BME280;68384;55.750;48.746;2023-04-15T03:50:28;100409.81;;;-2.09;32.45
78986;BME280;68384;55.750;48.746;2023-04-15T03:51:32;100419.25;;;-2.08;32.50
78986;BME280;68384;55.750;48.746;2023-04-15T03:52:37;100417.03;;;-2.13;32.01
78986;BME280;68384;55.750;48.746;2023-04-15T03:53:40;100419.31;;;-2.16;31.85
78986;BME280;68384;55.750;48.746;2023-04-15T03:54:45;100417.53;;;-2.17;31.90
78986;BME280;68384;55.750;48.746;2023-04-15T03:55:49;100414.38;;;-2.15;31.84
78986;BME280;68384;55.750;48.746;2023-04-15T03:56:54;100420.47;;;-2.13;32.20
78986;BME280;68384;55.750;48.746;2023-04-15T03:57:59;100430.75;;;-2.11;31.83
78986;BME280;68384;55.750;48.746;2023-04-15T03:59:04;100424.59;;;-2.05;31.92
78986;BME280;68384;55.750;48.746;2023-04-15T04:00:09;100412.53;;;-2.07;31.97
78986;BME280;68384;55.750;48.746;2023-04-15T04:01:14;100427.44;;;-2.02;31.88
78986;BME280;68384;55.750;48.746;2023-04-15T04:02:18;100416.69;;;-2.08;32.16
78986;BME280;68384;55.750;48.746;2023-04-15T04:03:24;100412.66;;;-2.06;31.91
78986;BME280;68384;55.750;48.746;2023-04-15T04:04:29;100422.53;;;-2.09;32.05
78986;BME280;68384;55.750;48.746;2023-04-15T04:05:33;100428.38;;;-2.10;31.98
78986;BME280;68384;55.750;48.746;2023-04-15T04:06:41;100429.88;;;-2.12;32.13
78986;BME280;68384;55.750;48.746;2023-04-15T04:07:44;100427.59;;;-2.09;31.98
78986;BME280;68384;55.750;48.746;2023-04-15T04:08:49;100415.81;;;-2.08;31.86
78986;BME280;68384;55.750;48.746;2023-04-15T04:09:53;100417.59;;;-2.07;32.17
78986;BME280;68384;55.750;48.746;2023-04-15T04:10:58;100425.44;;;-1.96;31.78
78986;BME280;68384;55.750;48.746;2023-04-15T04:12:02;100403.59;;;-2.12;31.89
78986;BME280;68384;55.750;48.746;2023-04-15T04:13:07;100433.94;;;-1.95;31.86
78986;BME280;68384;55.750;48.746;2023-04-15T04:14:11;100434.09;;;-1.94;31.81
78986;BME280;68384;55.750;48.746;2023-04-15T04:15:17;100430.03;;;-1.92;31.64
78986;BME280;68384;55.750;48.746;2023-04-15T04:16:21;100429.00;;;-1.94;31.47
78986;BME280;68384;55.750;48.746;2023-04-15T04:17:26;100437.53;;;-1.93;31.80
78986;BME280;68384;55.750;48.746;2023-04-15T04:18:30;100436.34;;;-1.97;31.52
78986;BME280;68384;55.750;48.746;2023-04-15T04:19:35;100436.75;;;-1.92;31.54
78986;BME280;68384;55.750;48.746;2023-04-15T04:20:39;100429.41;;;-1.89;31.35
78986;BME280;68384;55.750;48.746;2023-04-15T04:21:44;100445.28;;;-1.92;31.39
78986;BME280;68384;55.750;48.746;2023-04-15T04:22:47;100451.94;;;-1.84;31.41
78986;BME280;68384;55.750;48.746;2023-04-15T04:23:52;100432.78;;;-1.80;31.58
78986;BME280;68384;55.750;48.746;2023-04-15T04:24:55;100450.16;;;-1.85;31.24
78986;BME280;68384;55.750;48.746;2023-04-15T04:26:01;100426.41;;;-1.85;31.26
78986;BME280;68384;55.750;48.746;2023-04-15T04:27:05;100430.25;;;-1.80;31.01
78986;BME280;68384;55.750;48.746;2023-04-15T04:28:10;100438.41;;;-1.74;31.18
78986;BME280;68384;55.750;48.746;2023-04-15T04:29:14;100434.69;;;-1.78;31.34
78986;BME280;68384;55.750;48.746;2023-04-15T04:30:20;100443.22;;;-1.77;31.04
78986;BME280;68384;55.750;48.746;2023-04-15T04:31:25;100430.91;;;-1.73;31.30
78986;BME280;68384;55.750;48.746;2023-04-15T04:32:29;100450.78;;;-1.69;31.63
78986;BME280;68384;55.750;48.746;2023-04-15T04:33:34;100434.41;;;-1.62;31.37
78986;BME280;68384;55.750;48.746;2023-04-15T04:34:38;100447.25;;;-1.61;30.95
78986;BME280;68384;55.750;48.746;2023-04-15T04:35:43;100439.91;;;-1.57;31.16
78986;BME280;68384;55.750;48.746;2023-04-15T04:36:46;100442.97;;;-1.51;31.15
78986;BME280;68384;55.750;48.746;2023-04-15T04:37:51;100442.34;;;-1.49;31.15
78986;BME280;68384;55.750;48.746;2023-04-15T04:38:56;100460.56;;;-1.44;31.06
78986;BME280;68384;55.750;48.746;2023-04-15T04:40:00;100456.50;;;-1.42;31.57
78986;BME280;68384;55.750;48.746;2023-04-15T04:41:04;100448.25;;;-1.40;31.19
78986;BME280;68384;55.750;48.746;2023-04-15T04:42:09;100446.88;;;-1.36;30.74
78986;BME280;68384;55.750;48.746;2023-04-15T04:43:13;100459.88;;;-1.33;30.51
78986;BME280;68384;55.750;48.746;2023-04-15T04:44:18;100456.72;;;-1.31;30.54
78986;BME280;68384;55.750;48.746;2023-04-15T04:45:24;100453.38;;;-1.30;30.80
78986;BME280;68384;55.750;48.746;2023-04-15T04:46:29;100453.81;;;-1.25;31.02
78986;BME280;68384;55.750;48.746;2023-04-15T04:47:33;100468.56;;;-1.21;30.78
78986;BME280;68384;55.750;48.746;2023-04-15T04:48:38;100468.84;;;-1.18;30.96
78986;BME280;68384;55.750;48.746;2023-04-15T04:49:42;100437.22;;;-1.12;30.68
78986;BME280;68384;55.750;48.746;2023-04-15T04:50:46;100448.13;;;-1.13;30.56
78986;BME280;68384;55.750;48.746;2023-04-15T04:51:51;100457.19;;;-1.06;30.46
78986;BME280;68384;55.750;48.746;2023-04-15T04:52:55;100459.88;;;-1.05;30.01
78986;BME280;68384;55.750;48.746;2023-04-15T04:54:00;100473.75;;;-1.01;30.03
78986;BME280;68384;55.750;48.746;2023-04-15T04:55:06;100468.03;;;-0.98;30.09
78986;BME280;68384;55.750;48.746;2023-04-15T04:56:11;100463.22;;;-0.95;30.10
78986;BME280;68384;55.750;48.746;2023-04-15T04:57:16;100464.13;;;-0.95;30.26
78986;BME280;68384;55.750;48.746;2023-04-15T04:58:20;100472.13;;;-0.90;30.19
78986;BME280;68384;55.750;48.746;2023-04-15T04:59:25;100466.41;;;-0.88;30.39
78986;BME280;68384;55.750;48.746;2023-04-15T05:00:30;100460.22;;;-0.81;30.21
78986;BME280;68384;55.750;48.746;2023-04-15T05:01:35;100475.06;;;-0.86;30.03
78986;BME280;68384;55.750;48.746;2023-04-15T05:02:39;100473.06;;;-0.80;29.75
78986;BME280;68384;55.750;48.746;2023-04-15T05:03:46;100471.78;;;-0.75;29.99
78986;BME280;68384;55.750;48.746;2023-04-15T05:04:50;100468.34;;;-0.75;29.36
78986;BME280;68384;55.750;48.746;2023-04-15T05:05:56;100460.88;;;-0.74;29.53
78986;BME280;68384;55.750;48.746;2023-04-15T05:07:00;100468.88;;;-0.69;29.26
78986;BME280;68384;55.750;48.746;2023-04-15T05:08:05;100476.16;;;-0.64;29.19
78986;BME280;68384;55.750;48.746;2023-04-15T05:09:09;100461.88;;;-0.72;29.60
78986;BME280;68384;55.750;48.746;2023-04-15T05:10:14;100472.97;;;-0.61;29.15
78986;BME280;68384;55.750;48.746;2023-04-15T05:11:19;100470.44;;;-0.61;28.97
78986;BME280;68384;55.750;48.746;2023-04-15T05:12:24;100458.69;;;-0.69;28.31
78986;BME280;68384;55.750;48.746;2023-04-15T05:13:28;100445.50;;;-0.65;29.11
78986;BME280;68384;55.750;48.746;2023-04-15T05:14:34;100449.06;;;-0.63;27.95
78986;BME280;68384;55.750;48.746;2023-04-15T05:15:39;100465.97;;;-0.64;27.26
78986;BME280;68384;55.750;48.746;2023-04-15T05:16:45;100466.25;;;-0.61;26.76
78986;BME280;68384;55.750;48.746;2023-04-15T05:17:49;100469.06;;;-0.58;27.25
78986;BME280;68384;55.750;48.746;2023-04-15T05:18:54;100466.50;;;-0.58;27.01
78986;BME280;68384;55.750;48.746;2023-04-15T05:19:57;100459.25;;;-0.53;27.00
78986;BME280;68384;55.750;48.746;2023-04-15T05:21:02;100449.84;;;-0.54;26.64
78986;BME280;68384;55.750;48.746;2023-04-15T05:22:06;100456.84;;;-0.42;26.50
78986;BME280;68384;55.750;48.746;2023-04-15T05:23:11;100465.03;;;-0.35;26.58
78986;BME280;68384;55.750;48.746;2023-04-15T05:24:16;100475.72;;;-0.29;26.50
78986;BME280;68384;55.750;48.746;2023-04-15T05:25:20;100471.75;;;-0.26;26.55
78986;BME280;68384;55.750;48.746;2023-04-15T05:26:25;100465.28;;;-0.22;26.63
78986;BME280;68384;55.750;48.746;2023-04-15T05:27:29;100473.44;;;-0.16;26.86
78986;BME280;68384;55.750;48.746;2023-04-15T05:28:34;100460.97;;;-0.13;26.73
78986;BME280;68384;55.750;48.746;2023-04-15T05:29:38;100470.63;;;-0.09;26.72
78986;BME280;68384;55.750;48.746;2023-04-15T05:30:44;100481.22;;;-0.05;26.33
78986;BME280;68384;55.750;48.746;2023-04-15T05:31:48;100470.88;;;-0.06;26.01
78986;BME280;68384;55.750;48.746;2023-04-15T05:32:53;100462.63;;;-0.14;26.03
78986;BME280;68384;55.750;48.746;2023-04-15T05:33:57;100473.31;;;0.02;26.03
78986;BME280;68384;55.750;48.746;2023-04-15T05:35:01;100471.13;;;0.07;26.28
78986;BME280;68384;55.750;48.746;2023-04-15T05:36:05;100482.22;;;0.07;25.93
78986;BME280;68384;55.750;48.746;2023-04-15T05:37:10;100472.28;;;0.10;26.01
78986;BME280;68384;55.750;48.746;2023-04-15T05:38:13;100481.47;;;0.18;25.85
78986;BME280;68384;55.750;48.746;2023-04-15T05:39:18;100487.47;;;0.19;25.59
78986;BME280;68384;55.750;48.746;2023-04-15T05:40:22;100479.31;;;0.13;25.81
78986;BME280;68384;55.750;48.746;2023-04-15T05:41:27;100473.72;;;0.17;25.96
78986;BME280;68384;55.750;48.746;2023-04-15T05:42:30;100487.84;;;0.24;26.15
78986;BME280;68384;55.750;48.746;2023-04-15T05:43:35;100481.59;;;0.30;25.61